Time;durP1;ratioP1;P1;durP2;ratioP2;P2;SDS_P1;SDS_P2;PMS_P1;PMS_P2;Temp;Humidity;BMP_temperature;BMP_pressure;BME280_temperature;BME280_humidity;BME280_pressure;Samples;Min_cycle;Max_cycle;Signal;HPM_P1;HPM_P2
2021/06/18 11:14:38;;;;;;;7.60;4.40;;;39.70;59.20;;;;;;5121814;22;20059;-64
2021/06/18 11:17:25;;;;;;;;;;;39.90;56.30;;;;;;5094587;27;20142;-64
2021/06/18 11:19:52;;;;;;;7.57;4.70;;;39.90;57.10;;;;;;5094876;27;19928;-64
2021/06/18 11:22:34;;;;;;;7.00;4.85;;;40.70;56.90;;;;;;5094955;28;20501;-64
2021/06/18 11:25:01;;;;;;;7.72;4.18;;;40.30;57.10;;;;;;5097437;28;20092;-64
2021/06/18 11:27:31;;;;;;;8.02;4.82;;;40.10;57.90;;;;;;5095600;28;20590;-64
2021/06/18 11:30:25;;;;;;;7.30;4.82;;;39.50;57.80;;;;;;5087677;28;20123;-64
2021/06/18 11:32:54;;;;;;;6.80;4.45;;;39.50;58.00;;;;;;5088669;28;20052;-64
2021/06/18 11:35:40;;;;;;;7.38;5.10;;;40.30;57.80;;;;;;5092134;28;20046;-64
2021/06/18 11:38:12;;;;;;;6.95;4.50;;;40.30;57.90;;;;;;5090410;28;20136;-64
2021/06/18 11:40:39;;;;;;;7.57;4.47;;;40.90;57.30;;;;;;5092266;27;20051;-64
2021/06/18 11:43:06;;;;;;;7.95;4.45;;;40.00;54.70;;;;;;5094491;28;20469;-65
2021/06/18 11:45:41;;;;;;;6.70;4.63;;;39.00;56.00;;;;;;5089085;28;20087;-65
2021/06/18 11:48:18;;;;;;;5.38;3.90;;;39.10;55.20;;;;;;5091436;28;20047;-62
2021/06/18 11:50:46;;;;;;;5.90;3.88;;;38.60;54.20;;;;;;5095982;28;20446;-65
2021/06/18 11:53:15;;;;;;;6.28;3.97;;;38.40;53.70;;;;;;5097407;28;20044;-66
2021/06/18 11:55:43;;;;;;;5.88;4.07;;;39.30;54.70;;;;;;5101704;28;20478;-66
2021/06/18 11:58:31;;;;;;;12.18;3.97;;;39.40;52.70;;;;;;5103916;28;20082;-66
2021/06/18 12:01:10;;;;;;;7.03;4.05;;;40.20;53.20;;;;;;5104021;28;20035;-66
2021/06/18 12:03:37;;;;;;;5.53;3.42;;;40.20;51.80;;;;;;5104154;28;20108;-66
2021/06/18 12:06:15;;;;;;;6.07;3.85;;;40.00;52.30;;;;;;5102561;28;20104;-66
2021/06/18 12:09:00;;;;;;;7.47;4.00;;;39.80;53.50;;;;;;5102979;28;20076;-66
2021/06/18 12:11:28;;;;;;;5.13;3.35;;;39.60;52.50;;;;;;5103027;28;20069;-66
2021/06/18 12:13:56;;;;;;;7.25;3.60;;;40.60;52.40;;;;;;5102469;28;20136;-66
2021/06/18 12:16:27;;;;;;;6.10;4.00;;;40.70;52.10;;;;;;5101669;28;20487;-66
2021/06/18 12:18:54;;;;;;;7.95;4.25;;;41.00;51.00;;;;;;5103083;28;20055;-66
2021/06/18 12:21:24;;;;;;;6.68;4.07;;;39.80;50.00;;;;;;5103548;28;20052;-66
2021/06/18 12:24:01;;;;;;;7.45;3.80;;;39.30;50.80;;;;;;5103380;28;20052;-66
2021/06/18 12:26:28;;;;;;;6.13;3.90;;;40.10;50.90;;;;;;5103559;28;20083;-66
2021/06/18 12:28:56;;;;;;;5.57;3.80;;;40.70;51.00;;;;;;5104600;28;20492;-66
2021/06/18 12:31:23;;;;;;;5.32;3.47;;;39.90;49.30;;;;;;5102850;28;21129;-66
2021/06/18 12:33:52;;;;;;;6.22;3.75;;;39.90;49.40;;;;;;5107938;27;20047;-66
2021/06/18 12:36:21;;;;;;;5.57;3.95;;;39.70;49.90;;;;;;5106888;27;20043;-66
2021/06/18 12:38:48;;;;;;;6.18;3.60;;;39.90;50.00;;;;;;5107506;28;20065;-66
2021/06/18 12:41:25;;;;;;;8.20;4.03;;;39.60;50.80;;;;;;5107656;27;20043;-66
2021/06/18 12:43:59;;;;;;;5.82;3.25;;;38.90;49.50;;;;;;5107581;27;20039;-66
2021/06/18 12:46:26;;;;;;;11.18;3.90;;;38.80;50.70;;;;;;5106045;28;20059;-66
2021/06/18 12:49:04;;;;;;;8.40;4.00;;;38.50;51.50;;;;;;5107442;28;20100;-66
2021/06/18 12:51:31;;;;;;;7.72;4.05;;;38.10;51.20;;;;;;5105934;27;20051;-66
2021/06/18 12:54:03;;;;;;;6.00;4.00;;;38.50;51.50;;;;;;5106649;28;20441;-67
2021/06/18 12:56:31;;;;;;;5.80;3.90;;;38.80;51.80;;;;;;5107503;28;20186;-67
2021/06/18 12:59:10;;;;;;;6.45;4.10;;;38.30;51.80;;;;;;5106050;28;20066;-66
2021/06/18 13:01:40;;;;;;;11.65;4.22;;;38.50;51.90;;;;;;5106321;28;20050;-66
2021/06/18 13:04:10;;;;;;;7.35;3.90;;;39.20;50.30;;;;;;5106892;27;20065;-66
2021/06/18 13:06:42;;;;;;;4.70;3.70;;;39.60;51.50;;;;;;5107625;27;20081;-66
2021/06/18 13:09:10;;;;;;;9.48;4.10;;;39.20;51.00;;;;;;5106893;28;20050;-66
2021/06/18 13:11:39;;;;;;;10.10;4.10;;;38.80;51.50;;;;;;5106706;27;20556;-67
2021/06/18 13:14:10;;;;;;;6.88;3.75;;;38.80;50.00;;;;;;5106179;28;20491;-66
2021/06/18 13:16:38;;;;;;;5.75;3.95;;;39.60;50.40;;;;;;5106800;27;20047;-66
2021/06/18 13:19:05;;;;;;;6.60;4.32;;;39.50;49.80;;;;;;5105268;28;20491;-66
2021/06/18 13:21:47;;;;;;;6.63;3.90;;;38.90;50.50;;;;;;5105353;27;20036;-66
2021/06/18 13:24:15;;;;;;;9.02;4.88;;;39.00;50.20;;;;;;5104331;28;20483;-66
2021/06/18 13:26:43;;;;;;;6.18;4.05;;;39.10;50.30;;;;;;5105562;28;20480;-66
2021/06/18 13:29:13;;;;;;;8.20;4.13;;;38.50;50.70;;;;;;5104726;28;20040;-66
2021/06/18 13:31:40;;;;;;;6.82;4.10;;;38.70;50.90;;;;;;5105253;28;20270;-66
2021/06/18 13:34:09;;;;;;;7.30;3.75;;;39.10;50.10;;;;;;5105947;28;20048;-66
2021/06/18 13:36:39;;;;;;;6.72;3.72;;;39.40;50.00;;;;;;5104448;28;20124;-66
2021/06/18 13:39:18;;;;;;;5.32;3.92;;;40.20;49.00;;;;;;5106490;27;20047;-66
2021/06/18 13:41:45;;;;;;;6.25;4.30;;;40.50;49.10;;;;;;5105302;27;20138;-67
2021/06/18 13:44:12;;;;;;;6.60;3.67;;;40.80;48.50;;;;;;5102352;28;20442;-66
2021/06/18 13:46:40;;;;;;;8.70;4.57;;;40.90;48.20;;;;;;5103368;28;20566;-66
2021/06/18 13:49:08;;;;;;;8.00;4.50;;;40.40;48.00;;;;;;5104615;28;20487;-66
2021/06/18 13:51:36;;;;;;;7.15;3.90;;;40.00;49.50;;;;;;5103811;28;20052;-66
2021/06/18 13:54:04;;;;;;;6.95;4.40;;;40.00;49.10;;;;;;5094087;28;20583;-66
2021/06/18 13:56:32;;;;;;;6.82;3.90;;;40.00;48.80;;;;;;5094496;28;20043;-66
2021/06/18 13:58:59;;;;;;;5.70;4.13;;;39.80;49.40;;;;;;5094081;28;20047;-66
2021/06/18 14:01:26;;;;;;;7.63;3.95;;;39.50;49.10;;;;;;5093430;28;20100;-66
2021/06/18 14:03:53;;;;;;;8.73;4.65;;;39.50;50.50;;;;;;5094188;27;20098;-66
2021/06/18 14:06:21;;;;;;;5.72;4.30;;;39.00;48.80;;;;;;5095698;27;20047;-67
2021/06/18 14:08:48;;;;;;;6.95;4.32;;;39.00;48.90;;;;;;5095692;28;20083;-66
2021/06/18 14:11:18;;;;;;;7.90;4.05;;;39.70;48.80;;;;;;5095415;28;20075;-66
2021/06/18 14:13:46;;;;;;;7.97;4.07;;;39.80;48.20;;;;;;5096070;27;20458;-67
2021/06/18 14:16:13;;;;;;;8.95;3.92;;;39.60;49.50;;;;;;5095408;27;20065;-66
2021/06/18 14:18:40;;;;;;;6.40;3.83;;;39.20;49.00;;;;;;5093982;27;20104;-66
2021/06/18 14:21:08;;;;;;;6.10;3.70;;;38.50;50.10;;;;;;5094267;28;20071;-67
2021/06/18 14:23:35;;;;;;;6.20;4.00;;;38.60;49.10;;;;;;5094769;28;20078;-66
2021/06/18 14:26:02;;;;;;;5.80;4.43;;;38.60;50.40;;;;;;5094655;28;20140;-66
2021/06/18 14:28:30;;;;;;;8.30;3.75;;;38.80;49.40;;;;;;5096272;28;20097;-66
2021/06/18 14:30:58;;;;;;;6.72;4.28;;;39.50;49.10;;;;;;5095099;27;20069;-66
2021/06/18 14:33:26;;;;;;;6.28;3.90;;;38.70;48.90;;;;;;5095829;28;20101;-67
2021/06/18 14:35:53;;;;;;;6.78;3.72;;;38.70;48.30;;;;;;5096400;27;20102;-66
2021/06/18 14:38:20;;;;;;;5.55;3.97;;;39.30;47.40;;;;;;5096191;28;20050;-67
2021/06/18 14:40:48;;;;;;;6.00;4.38;;;38.90;47.50;;;;;;5095255;28;20051;-66
2021/06/18 14:43:15;;;;;;;6.03;4.40;;;39.10;47.80;;;;;;5094216;27;20112;-66
2021/06/18 14:45:42;;;;;;;8.25;4.30;;;38.40;47.90;;;;;;5094595;28;20051;-66
2021/06/18 14:48:10;;;;;;;5.22;3.90;;;38.50;48.00;;;;;;5093706;28;20544;-66
2021/06/18 14:50:37;;;;;;;7.03;4.07;;;39.00;48.60;;;;;;5093972;27;20495;-66
2021/06/18 14:53:04;;;;;;;5.80;4.00;;;39.40;48.40;;;;;;5095284;28;20105;-66
2021/06/18 14:55:31;;;;;;;7.55;4.45;;;39.60;48.20;;;;;;5093718;27;20046;-67
2021/06/18 14:57:58;;;;;;;6.18;3.92;;;38.70;48.20;;;;;;5093696;28;20066;-66
2021/06/18 15:00:25;;;;;;;6.60;4.32;;;39.40;48.00;;;;;;5094028;27;20116;-66
2021/06/18 15:02:52;;;;;;;13.07;4.45;;;39.70;47.30;;;;;;5094071;28;20055;-66
2021/06/18 15:05:21;;;;;;;6.72;4.25;;;39.80;47.10;;;;;;5095127;28;20089;-66
2021/06/18 15:07:48;;;;;;;7.97;3.92;;;40.00;47.80;;;;;;5093689;27;20126;-67
2021/06/18 15:10:16;;;;;;;9.55;4.40;;;39.60;47.70;;;;;;5091951;28;20109;-66
2021/06/18 15:12:44;;;;;;;7.25;4.43;;;39.80;47.70;;;;;;5093267;27;20104;-67
2021/06/18 15:15:13;;;;;;;8.50;4.63;;;39.20;48.10;;;;;;5092189;28;20079;-67
2021/06/18 15:17:40;;;;;;;5.97;3.97;;;39.50;48.40;;;;;;5092319;27;20083;-66
2021/06/18 15:20:09;;;;;;;9.13;4.75;;;39.60;48.20;;;;;;5092746;28;20135;-66
2021/06/18 15:22:37;;;;;;;7.18;5.00;;;39.20;47.90;;;;;;5092212;28;20079;-67
2021/06/18 15:25:06;;;;;;;8.02;4.20;;;38.90;48.20;;;;;;5089162;28;20044;-66
2021/06/18 15:27:33;;;;;;;7.85;4.18;;;39.10;49.30;;;;;;5092352;27;20120;-66
2021/06/18 15:30:01;;;;;;;7.20;4.20;;;38.40;49.70;;;;;;5090172;28;20055;-66
2021/06/18 15:32:28;;;;;;;10.18;4.65;;;38.80;48.70;;;;;;5088650;28;20544;-66
2021/06/18 15:34:55;;;;;;;6.55;4.10;;;38.00;48.10;;;;;;5088509;28;20039;-66
2021/06/18 15:37:22;;;;;;;6.35;4.30;;;38.00;48.00;;;;;;5088026;27;20128;-66
2021/06/18 15:39:50;;;;;;;15.73;4.57;;;38.40;47.70;;;;;;5088402;28;20568;-66
2021/06/18 15:42:17;;;;;;;6.70;3.97;;;38.30;47.90;;;;;;5088195;28;20050;-66
2021/06/18 15:44:44;;;;;;;7.10;3.88;;;38.30;48.50;;;;;;5088256;28;20085;-66
2021/06/18 15:47:11;;;;;;;6.38;3.70;;;38.50;48.50;;;;;;5089223;27;20096;-66
2021/06/18 15:49:38;;;;;;;6.00;3.88;;;38.70;49.10;;;;;;5088738;28;20043;-66
2021/06/18 15:52:06;;;;;;;5.97;3.90;;;38.80;48.20;;;;;;5088551;28;20051;-66
2021/06/18 15:54:33;;;;;;;6.85;4.30;;;38.70;48.30;;;;;;5089235;28;20058;-66
2021/06/18 15:57:02;;;;;;;6.28;4.30;;;39.00;47.10;;;;;;5088112;28;20058;-67
2021/06/18 15:59:29;;;;;;;11.10;4.13;;;39.40;47.60;;;;;;5089617;28;20047;-67
2021/06/18 16:01:57;;;;;;;7.35;4.18;;;39.60;46.90;;;;;;5092964;27;20055;-66
2021/06/18 16:04:24;;;;;;;6.65;4.35;;;39.50;47.20;;;;;;5091852;28;20602;-67
2021/06/18 16:06:52;;;;;;;14.85;4.70;;;38.80;46.70;;;;;;5087391;28;20075;-66
2021/06/18 16:09:20;;;;;;;8.68;4.53;;;38.60;47.90;;;;;;5088813;28;20388;-66
2021/06/18 16:11:47;;;;;;;8.18;4.25;;;39.10;48.00;;;;;;5087017;28;20047;-66
2021/06/18 16:14:16;;;;;;;6.43;4.00;;;38.10;46.80;;;;;;5088608;28;20051;-66
2021/06/18 16:16:44;;;;;;;6.45;4.32;;;38.60;47.30;;;;;;5088660;28;20036;-66
2021/06/18 16:19:14;;;;;;;9.13;6.75;;;38.20;48.30;;;;;;5083879;28;20047;-66
2021/06/18 16:21:42;;;;;;;6.20;4.13;;;37.90;49.60;;;;;;5088849;28;20116;-66
2021/06/18 16:24:09;;;;;;;7.05;4.25;;;38.30;48.90;;;;;;5088099;28;20079;-66
2021/06/18 16:26:38;;;;;;;9.98;4.25;;;38.30;47.20;;;;;;5089217;28;20036;-66
2021/06/18 16:29:05;;;;;;;5.88;3.95;;;38.00;48.20;;;;;;5089849;28;20120;-66
2021/06/18 16:31:33;;;;;;;9.65;4.07;;;38.30;48.10;;;;;;5086917;28;20044;-66
2021/06/18 16:34:00;;;;;;;6.10;4.07;;;38.50;48.50;;;;;;5089016;28;20090;-66
2021/06/18 16:36:27;;;;;;;6.25;4.43;;;38.40;47.10;;;;;;5088219;28;20124;-66
2021/06/18 16:38:54;;;;;;;7.32;4.75;;;38.30;47.90;;;;;;5087696;28;20722;-66
2021/06/18 16:41:22;;;;;;;8.27;4.40;;;37.80;49.60;;;;;;5086902;28;20189;-66
2021/06/18 16:43:49;;;;;;;6.18;4.45;;;37.10;49.70;;;;;;5087560;28;20400;-66
2021/06/18 16:46:16;;;;;;;8.02;4.65;;;37.00;48.90;;;;;;5087188;28;20074;-66
2021/06/18 16:48:44;;;;;;;7.78;4.20;;;36.60;49.10;;;;;;5087451;28;20052;-66
2021/06/18 16:51:11;;;;;;;8.23;4.93;;;36.70;50.20;;;;;;5087468;28;20047;-66
2021/06/18 16:53:38;;;;;;;6.28;4.38;;;36.20;49.40;;;;;;5087989;28;20433;-66
2021/06/18 16:56:06;;;;;;;6.88;4.60;;;36.20;49.80;;;;;;5088434;28;20051;-66
2021/06/18 16:58:33;;;;;;;11.07;7.45;;;36.00;49.00;;;;;;5087740;28;20039;-66
2021/06/18 17:01:00;;;;;;;7.80;5.13;;;35.90;49.90;;;;;;5087376;28;20090;-66
2021/06/18 17:03:28;;;;;;;8.02;4.50;;;36.10;49.80;;;;;;5089089;28;20089;-66
2021/06/18 17:06:00;;;;;;;8.00;4.60;;;36.00;50.50;;;;;;5088970;28;20137;-66
2021/06/18 17:08:30;;;;;;;8.73;5.20;;;36.10;49.90;;;;;;5090544;28;20503;-66
2021/06/18 17:10:57;;;;;;;8.35;4.72;;;36.10;50.30;;;;;;5087944;28;20052;-66
2021/06/18 17:13:38;;;;;;;8.02;5.07;;;36.00;50.60;;;;;;5089475;28;20047;-66
2021/06/18 17:16:06;;;;;;;6.47;4.40;;;35.80;50.70;;;;;;5088314;28;20551;-66
2021/06/18 17:18:34;;;;;;;5.47;4.47;;;35.70;51.00;;;;;;5094422;28;20430;-66
2021/06/18 17:21:03;;;;;;;7.47;5.60;;;35.70;52.00;;;;;;5096716;28;20097;-66
2021/06/18 17:23:30;;;;;;;7.97;5.05;;;35.70;52.20;;;;;;5097208;27;20104;-66
2021/06/18 17:25:58;;;;;;;9.57;7.03;;;35.50;52.70;;;;;;5097503;27;20754;-66
2021/06/18 17:28:25;;;;;;;7.65;4.93;;;35.60;52.30;;;;;;5097101;28;20081;-66
2021/06/18 17:30:52;;;;;;;13.00;7.10;;;35.40;53.00;;;;;;5090178;28;20116;-66
2021/06/18 17:33:19;;;;;;;10.52;7.03;;;35.40;53.30;;;;;;5094259;28;20143;-66
2021/06/18 17:35:46;;;;;;;11.07;6.97;;;35.50;52.20;;;;;;5092961;28;20523;-66
2021/06/18 17:38:15;;;;;;;8.23;5.25;;;35.50;52.40;;;;;;5093287;27;20035;-66
2021/06/18 17:40:42;;;;;;;16.75;6.30;;;35.60;52.80;;;;;;5088313;27;20093;-66
2021/06/18 17:43:09;;;;;;;16.05;11.95;;;35.60;55.10;;;;;;5088990;27;20039;-66
2021/06/18 17:45:35;;;;;;;11.85;8.60;;;35.60;54.10;;;;;;5096286;28;20094;-66
2021/06/18 17:48:02;;;;;;;8.23;5.50;;;35.50;55.40;;;;;;5095934;27;20510;-66
2021/06/18 17:50:29;;;;;;;10.60;5.00;;;35.60;55.10;;;;;;5092771;27;20472;-66
2021/06/18 17:52:56;;;;;;;10.93;4.70;;;35.60;55.70;;;;;;5091783;28;20536;-66
2021/06/18 17:55:25;;;;;;;9.10;4.90;;;35.80;54.20;;;;;;5087172;27;20131;-66
2021/06/18 17:57:52;;;;;;;7.18;4.82;;;35.80;54.00;;;;;;5091433;28;20073;-66
2021/06/18 18:00:19;;;;;;;10.15;5.43;;;35.80;53.80;;;;;;5092931;28;20050;-66
2021/06/18 18:02:46;;;;;;;9.63;5.03;;;35.60;56.50;;;;;;5091157;28;20171;-64
2021/06/18 18:05:14;;;;;;;8.27;4.82;;;35.60;55.60;;;;;;5093084;28;20043;-64
2021/06/18 18:07:41;;;;;;;8.40;5.20;;;35.50;57.30;;;;;;5089810;27;20061;-64
2021/06/18 18:10:09;;;;;;;9.85;5.68;;;35.30;56.10;;;;;;5092110;27;20104;-64
2021/06/18 18:12:38;;;;;;;8.98;5.50;;;35.10;57.70;;;;;;5091621;28;20096;-64
2021/06/18 18:15:06;;;;;;;8.27;5.40;;;35.00;61.10;;;;;;5093321;27;20087;-64
2021/06/18 18:17:33;;;;;;;12.77;5.75;;;34.70;60.80;;;;;;5093411;28;20078;-64
2021/06/18 18:20:00;;;;;;;7.63;5.80;;;34.50;61.80;;;;;;5092182;27;20039;-64
2021/06/18 18:22:27;;;;;;;9.55;5.32;;;34.20;62.10;;;;;;5093283;28;20055;-64
2021/06/18 18:24:54;;;;;;;9.75;5.75;;;34.10;62.00;;;;;;5092977;27;20055;-64
2021/06/18 18:27:21;;;;;;;8.45;6.03;;;34.00;61.20;;;;;;5092396;28;20044;-64
2021/06/18 18:29:49;;;;;;;11.43;6.28;;;33.80;65.60;;;;;;5091365;28;20096;-64
2021/06/18 18:32:17;;;;;;;9.93;5.95;;;33.70;65.70;;;;;;5091883;28;20051;-64
2021/06/18 18:34:44;;;;;;;11.07;5.20;;;33.60;65.80;;;;;;5092483;27;20083;-64
2021/06/18 18:37:11;;;;;;;9.68;5.90;;;33.30;66.90;;;;;;5093181;27;20043;-64
2021/06/18 18:39:38;;;;;;;9.95;5.88;;;33.20;68.50;;;;;;5093395;28;20040;-64
2021/06/18 18:42:06;;;;;;;10.77;6.18;;;33.00;69.50;;;;;;5092190;28;20113;-64
2021/06/18 18:44:33;;;;;;;10.00;6.20;;;32.50;70.60;;;;;;5091540;28;20083;-64
2021/06/18 18:47:02;;;;;;;11.55;6.05;;;32.30;71.40;;;;;;5092414;28;20048;-64
2021/06/18 18:49:29;;;;;;;10.48;6.25;;;32.20;71.80;;;;;;5092143;28;20121;-64
2021/06/18 18:51:56;;;;;;;10.27;6.38;;;32.00;72.10;;;;;;5091974;27;20330;-64
2021/06/18 18:54:32;;;;;;;8.73;5.80;;;31.80;72.90;;;;;;5091994;28;20052;-64
2021/06/18 18:57:00;;;;;;;9.70;6.57;;;31.60;73.90;;;;;;5091823;27;20134;-64
2021/06/18 18:59:27;;;;;;;10.05;6.15;;;31.40;74.00;;;;;;5091445;28;20407;-64
2021/06/18 19:01:54;;;;;;;15.52;6.32;;;31.20;73.80;;;;;;5092049;27;20515;-64
2021/06/18 19:04:22;;;;;;;8.60;6.13;;;31.00;74.50;;;;;;5092146;28;21089;-64
2021/06/18 19:06:49;;;;;;;10.30;6.13;;;30.70;75.00;;;;;;5092832;27;20728;-64
2021/06/18 19:09:16;;;;;;;10.90;6.25;;;30.60;75.90;;;;;;5091659;27;20043;-65
2021/06/18 19:11:43;;;;;;;11.13;6.07;;;30.50;75.70;;;;;;5091947;28;20415;-64
2021/06/18 19:14:10;;;;;;;9.13;6.85;;;30.30;75.40;;;;;;5090253;28;20047;-64
2021/06/18 19:16:43;;;;;;;12.13;7.28;;;30.20;76.30;;;;;;5091847;28;20322;-64
2021/06/18 19:19:10;;;;;;;8.90;5.95;;;30.10;76.80;;;;;;5096111;27;20146;-64
2021/06/18 19:21:38;;;;;;;14.20;7.20;;;29.90;77.30;;;;;;5094185;28;20040;-64
2021/06/18 19:24:06;;;;;;;10.32;6.63;;;29.80;78.10;;;;;;5095875;27;20086;-64
2021/06/18 19:26:35;;;;;;;10.60;6.78;;;29.80;78.90;;;;;;5094887;28;20104;-64
2021/06/18 19:29:02;;;;;;;14.88;6.80;;;29.70;78.60;;;;;;5095592;28;20048;-64
2021/06/18 19:31:29;;;;;;;9.10;6.20;;;29.60;78.60;;;;;;5094922;28;20075;-64
2021/06/18 19:33:56;;;;;;;9.80;6.38;;;29.50;78.70;;;;;;5094994;28;20100;-64
2021/06/18 19:36:23;;;;;;;15.40;6.68;;;29.40;79.20;;;;;;5095203;28;20039;-64
2021/06/18 19:38:51;;;;;;;12.32;6.88;;;29.30;79.80;;;;;;5095764;27;20051;-64
2021/06/18 19:41:18;;;;;;;9.45;6.95;;;29.20;82.20;;;;;;5093398;28;20043;-64
2021/06/18 19:43:45;;;;;;;10.68;6.63;;;29.20;81.90;;;;;;5095754;27;20403;-64
2021/06/18 19:46:12;;;;;;;11.77;7.68;;;29.00;82.70;;;;;;5094731;28;20142;-64
2021/06/18 19:48:39;;;;;;;14.73;8.43;;;28.90;85.20;;;;;;5095124;27;20043;-64
2021/06/18 19:51:06;;;;;;;15.73;8.43;;;28.80;85.60;;;;;;5093883;28;20047;-64
2021/06/18 19:53:34;;;;;;;12.70;8.90;;;28.60;87.10;;;;;;5094213;28;20084;-64
2021/06/18 19:56:02;;;;;;;22.20;9.38;;;28.40;87.30;;;;;;5096174;28;20047;-64
2021/06/18 19:58:29;;;;;;;15.60;8.13;;;28.40;89.40;;;;;;5095201;28;20096;-64
2021/06/18 20:00:56;;;;;;;11.32;8.10;;;28.20;90.30;;;;;;5090559;28;20108;-64
2021/06/18 20:03:23;;;;;;;13.68;8.15;;;28.20;90.30;;;;;;5092412;28;20458;-64
2021/06/18 20:05:50;;;;;;;15.35;8.23;;;28.20;90.50;;;;;;5094752;28;20043;-64
2021/06/18 20:08:17;;;;;;;19.15;9.82;;;28.10;90.70;;;;;;5094976;27;20423;-64
2021/06/18 20:10:44;;;;;;;14.05;8.40;;;28.00;91.00;;;;;;5094539;28;20175;-64
2021/06/18 20:13:12;;;;;;;11.93;8.52;;;27.90;91.20;;;;;;5094428;28;20047;-64
2021/06/18 20:15:39;;;;;;;13.23;9.02;;;28.00;91.60;;;;;;5094436;28;20388;-64
2021/06/18 20:18:06;;;;;;;13.05;8.80;;;27.80;92.20;;;;;;5093102;28;20090;-64
2021/06/18 20:20:33;;;;;;;18.00;8.88;;;27.70;92.40;;;;;;5093077;28;21000;-64
2021/06/18 20:23:01;;;;;;;14.10;8.00;;;27.50;93.00;;;;;;5094002;28;20352;-64
2021/06/18 20:25:28;;;;;;;13.13;7.72;;;27.50;93.10;;;;;;5095108;28;20088;-64
2021/06/18 20:27:56;;;;;;;14.75;7.65;;;27.40;93.10;;;;;;5094461;28;20040;-64
2021/06/18 20:30:25;;;;;;;13.27;7.22;;;27.40;93.40;;;;;;5093754;28;20147;-64
2021/06/18 20:32:52;;;;;;;12.50;7.63;;;27.40;93.50;;;;;;5095080;28;20081;-63
2021/06/18 20:35:21;;;;;;;16.38;7.53;;;27.30;93.80;;;;;;5092978;28;20054;-64
2021/06/18 20:37:50;;;;;;;14.40;7.53;;;27.30;94.00;;;;;;5094018;28;20051;-64
2021/06/18 20:40:20;;;;;;;16.98;7.60;;;27.20;94.60;;;;;;5093941;28;20138;-64
2021/06/18 20:42:47;;;;;;;12.50;7.90;;;27.30;94.80;;;;;;5092618;28;20388;-63
2021/06/18 20:45:15;;;;;;;14.20;7.43;;;27.20;95.40;;;;;;5091740;28;20516;-63
2021/06/18 20:47:44;;;;;;;10.90;7.65;;;27.10;95.70;;;;;;5090393;28;20124;-64
2021/06/18 20:50:13;;;;;;;12.50;7.45;;;27.10;95.90;;;;;;5088774;28;20101;-63
2021/06/18 20:52:41;;;;;;;17.35;9.00;;;27.00;96.50;;;;;;5092460;28;20453;-64
2021/06/18 20:55:09;;;;;;;12.00;7.57;;;26.90;96.70;;;;;;5094841;27;20043;-63
2021/06/18 20:57:36;;;;;;;11.73;7.38;;;26.80;96.90;;;;;;5094391;27;20091;-63
2021/06/18 21:00:06;;;;;;;12.38;7.63;;;26.80;97.20;;;;;;5094564;28;20040;-62
2021/06/18 21:02:33;;;;;;;13.57;8.07;;;27.00;97.70;;;;;;5094256;27;20138;-62
2021/06/18 21:05:02;;;;;;;11.10;7.18;;;26.90;97.60;;;;;;5094236;28;20487;-63
2021/06/18 21:07:29;;;;;;;10.40;7.60;;;26.90;97.80;;;;;;5094026;28;20079;-62
2021/06/18 21:09:55;;;;;;;11.98;7.47;;;27.00;98.00;;;;;;5093313;27;20051;-62
2021/06/18 21:12:22;;;;;;;13.02;7.80;;;26.90;98.50;;;;;;5093940;28;20500;-63
2021/06/18 21:14:49;;;;;;;11.13;7.80;;;26.80;98.70;;;;;;5094345;27;20075;-63
2021/06/18 21:17:16;;;;;;;13.30;8.73;;;26.60;98.90;;;;;;5093566;28;20047;-62
2021/06/18 21:19:43;;;;;;;12.57;7.30;;;26.60;99.00;;;;;;5093911;27;20083;-63
2021/06/18 21:22:12;;;;;;;10.70;8.13;;;26.70;98.50;;;;;;5094110;27;20626;-63
2021/06/18 21:24:39;;;;;;;11.98;6.90;;;26.60;99.30;;;;;;5094144;27;20083;-63
2021/06/18 21:27:07;;;;;;;13.02;7.53;;;26.60;99.30;;;;;;5093953;28;20063;-63
2021/06/18 21:29:34;;;;;;;12.05;8.32;;;26.60;99.50;;;;;;5092833;27;20058;-63
2021/06/18 21:32:01;;;;;;;15.25;8.98;;;26.60;99.90;;;;;;5092637;27;20047;-62
2021/06/18 21:34:28;;;;;;;14.15;9.20;;;26.50;99.90;;;;;;5093873;28;20075;-63
2021/06/18 21:36:55;;;;;;;15.80;8.25;;;26.30;99.90;;;;;;5093292;28;20500;-63
2021/06/18 21:39:24;;;;;;;12.80;7.78;;;26.10;99.90;;;;;;5093880;28;20051;-62
2021/06/18 21:41:52;;;;;;;13.70;8.15;;;26.20;99.90;;;;;;5092750;28;20074;-63
2021/06/18 21:44:19;;;;;;;10.90;7.78;;;26.20;99.90;;;;;;5093741;27;20055;-63
2021/06/18 21:46:46;;;;;;;13.38;8.82;;;26.10;99.90;;;;;;5092724;27;20140;-63
2021/06/18 21:49:13;;;;;;;16.10;9.23;;;26.10;99.90;;;;;;5094119;27;20116;-62
2021/06/18 21:51:40;;;;;;;10.73;8.75;;;26.10;99.90;;;;;;5092324;27;20461;-62
2021/06/18 21:54:08;;;;;;;12.88;8.52;;;26.10;99.90;;;;;;5093408;28;20043;-63
2021/06/18 21:56:36;;;;;;;13.43;8.70;;;26.00;99.90;;;;;;5093002;27;20438;-62
2021/06/18 21:59:03;;;;;;;17.52;9.20;;;26.00;99.90;;;;;;5094581;27;20407;-63
2021/06/18 22:01:30;;;;;;;14.18;9.43;;;26.00;99.90;;;;;;5093175;27;20453;-62
2021/06/18 22:03:57;;;;;;;22.02;9.90;;;26.10;99.90;;;;;;5092461;27;20079;-62
2021/06/18 22:06:24;;;;;;;14.95;8.00;;;25.90;99.90;;;;;;5093676;28;20086;-65
2021/06/18 22:08:51;;;;;;;13.93;8.02;;;25.70;99.90;;;;;;5093410;27;20104;-62
2021/06/18 22:11:18;;;;;;;13.73;8.88;;;25.60;99.90;;;;;;5091844;28;20144;-62
2021/06/18 22:13:47;;;;;;;12.07;8.00;;;25.60;99.90;;;;;;5093104;27;20083;-63
2021/06/18 22:16:15;;;;;;;14.27;7.93;;;25.50;99.90;;;;;;5093161;28;20077;-62
2021/06/18 22:18:42;;;;;;;14.50;8.77;;;25.40;99.90;;;;;;5092883;27;20127;-63
2021/06/18 22:21:10;;;;;;;15.18;9.15;;;25.30;99.90;;;;;;5092428;27;20096;-63
2021/06/18 22:23:37;;;;;;;11.43;8.10;;;25.20;99.90;;;;;;5091957;28;20354;-63
2021/06/18 22:26:04;;;;;;;12.30;8.45;;;25.20;99.90;;;;;;5093061;27;20067;-65
2021/06/18 22:28:31;;;;;;;12.82;8.15;;;25.20;99.90;;;;;;5092324;27;20071;-65
2021/06/18 22:30:59;;;;;;;13.57;8.90;;;25.20;99.90;;;;;;5091438;28;20134;-65
2021/06/18 22:33:30;;;;;;;17.15;9.00;;;25.00;99.90;;;;;;5092232;27;20097;-65
2021/06/18 22:35:57;;;;;;;11.00;8.30;;;25.00;99.90;;;;;;5092871;28;20051;-65
2021/06/18 22:38:24;;;;;;;15.43;8.27;;;24.90;99.90;;;;;;5092292;28;20589;-65
2021/06/18 22:40:52;;;;;;;16.05;10.25;;;24.90;99.90;;;;;;5091959;28;20132;-65
2021/06/18 22:43:19;;;;;;;16.23;8.07;;;25.00;99.90;;;;;;5092696;27;20047;-63
2021/06/18 22:45:46;;;;;;;15.65;8.30;;;25.00;99.90;;;;;;5091682;28;20078;-63
2021/06/18 22:48:15;;;;;;;12.25;9.25;;;24.90;99.90;;;;;;5091957;27;20134;-63
2021/06/18 22:50:42;;;;;;;11.38;8.55;;;24.80;99.90;;;;;;5092889;27;20039;-63
2021/06/18 22:53:09;;;;;;;14.10;9.05;;;24.80;99.90;;;;;;5091902;28;20047;-63
2021/06/18 22:55:37;;;;;;;13.27;9.35;;;24.80;99.90;;;;;;5092592;27;20089;-63
2021/06/18 22:58:06;;;;;;;13.43;8.82;;;24.70;99.90;;;;;;5091172;28;20089;-63
2021/06/18 23:00:36;;;;;;;15.48;9.10;;;24.60;99.90;;;;;;5092079;28;20308;-63
2021/06/18 23:03:04;;;;;;;19.23;10.00;;;24.50;99.90;;;;;;5091940;28;20051;-63
2021/06/18 23:05:33;;;;;;;16.23;8.55;;;24.40;99.90;;;;;;5091725;28;20160;-63
2021/06/18 23:08:01;;;;;;;12.25;9.25;;;24.40;99.90;;;;;;5092087;28;20097;-65
2021/06/18 23:10:31;;;;;;;14.68;9.25;;;24.30;99.90;;;;;;5091579;27;20047;-65
2021/06/18 23:12:58;;;;;;;12.93;9.10;;;24.30;99.90;;;;;;5091490;27;20051;-65
2021/06/18 23:15:25;;;;;;;12.63;9.50;;;24.30;99.90;;;;;;5091849;27;20047;-65
2021/06/18 23:17:52;;;;;;;15.32;10.57;;;24.20;99.90;;;;;;5090864;28;20048;-65
2021/06/18 23:20:21;;;;;;;14.43;11.48;;;24.20;99.90;;;;;;5091330;27;20044;-65
2021/06/18 23:22:51;;;;;;;13.90;9.98;;;24.20;99.90;;;;;;5090732;28;20051;-65
2021/06/18 23:25:21;;;;;;;12.90;9.50;;;24.10;99.90;;;;;;5091254;28;20108;-65
2021/06/18 23:27:49;;;;;;;15.88;11.07;;;24.20;99.90;;;;;;5091432;28;20500;-65
2021/06/18 23:30:17;;;;;;;14.63;10.88;;;24.20;99.90;;;;;;5090525;28;20519;-65
2021/06/18 23:32:45;;;;;;;12.85;10.93;;;24.10;99.90;;;;;;5091500;28;20107;-65
2021/06/18 23:35:13;;;;;;;18.15;13.27;;;24.10;99.90;;;;;;5091965;27;20048;-63
2021/06/18 23:37:40;;;;;;;16.42;13.57;;;24.00;99.90;;;;;;5091259;28;20465;-63
2021/06/18 23:40:09;;;;;;;17.83;13.35;;;23.90;99.90;;;;;;5090788;28;20476;-63
2021/06/18 23:42:37;;;;;;;17.45;13.63;;;23.70;99.90;;;;;;5091018;28;20096;-63
2021/06/18 23:45:05;;;;;;;17.90;13.98;;;23.60;99.90;;;;;;5090820;28;20047;-65
2021/06/18 23:47:32;;;;;;;20.80;14.88;;;23.50;99.90;;;;;;5091032;28;20123;-65
2021/06/18 23:49:59;;;;;;;18.65;14.90;;;23.60;99.90;;;;;;5090707;28;20081;-65
2021/06/18 23:52:26;;;;;;;19.73;14.55;;;23.60;99.90;;;;;;5091190;28;20077;-65
2021/06/18 23:54:56;;;;;;;18.83;15.30;;;23.60;99.90;;;;;;5091368;27;20047;-65
2021/06/18 23:57:25;;;;;;;17.90;14.48;;;23.60;99.90;;;;;;5090826;28;20048;-65
2021/06/18 23:59:52;;;;;;;17.05;13.95;;;23.50;99.90;;;;;;5090205;27;20515;-65
